sensor_id;sensor_type;location;lat;lon;timestamp;temperature;humidity
298;DHT22;133;49.626;9.680;2023-10-09T00:00:50;13.80;96.00
298;DHT22;133;49.626;9.680;2023-10-09T00:03:19;13.80;96.00
298;DHT22;133;49.626;9.680;2023-10-09T00:05:49;13.80;96.00
298;DHT22;133;49.626;9.680;2023-10-09T00:08:18;13.80;96.20
298;DHT22;133;49.626;9.680;2023-10-09T00:10:59;13.90;96.10
298;DHT22;133;49.626;9.680;2023-10-09T00:13:39;13.90;96.10
298;DHT22;133;49.626;9.680;2023-10-09T00:16:21;13.90;95.80
298;DHT22;133;49.626;9.680;2023-10-09T00:19:10;14.00;95.40
298;DHT22;133;49.626;9.680;2023-10-09T00:21:54;13.90;95.00
298;DHT22;133;49.626;9.680;2023-10-09T00:24:20;13.90;95.00
298;DHT22;133;49.626;9.680;2023-10-09T00:26:55;13.90;95.00
298;DHT22;133;49.626;9.680;2023-10-09T00:29:27;13.80;95.10
298;DHT22;133;49.626;9.680;2023-10-09T00:32:01;13.80;95.20
298;DHT22;133;49.626;9.680;2023-10-09T00:34:39;13.80;95.30
298;DHT22;133;49.626;9.680;2023-10-09T00:37:08;13.80;95.30
298;DHT22;133;49.626;9.680;2023-10-09T00:39:56;13.80;95.30
298;DHT22;133;49.626;9.680;2023-10-09T00:42:23;13.80;95.40
298;DHT22;133;49.626;9.680;2023-10-09T00:45:00;13.80;95.80
298;DHT22;133;49.626;9.680;2023-10-09T00:47:34;13.80;95.90
298;DHT22;133;49.626;9.680;2023-10-09T00:50:07;13.90;95.80
298;DHT22;133;49.626;9.680;2023-10-09T00:52:50;13.80;96.30
298;DHT22;133;49.626;9.680;2023-10-09T00:55:34;13.80;96.50
298;DHT22;133;49.626;9.680;2023-10-09T00:58:14;13.90;96.50
298;DHT22;133;49.626;9.680;2023-10-09T01:00:43;13.90;96.30
298;DHT22;133;49.626;9.680;2023-10-09T01:03:10;13.80;96.20
298;DHT22;133;49.626;9.680;2023-10-09T01:05:46;13.80;96.30
298;DHT22;133;49.626;9.680;2023-10-09T01:08:23;13.80;96.50
298;DHT22;133;49.626;9.680;2023-10-09T01:11:16;13.70;96.30
298;DHT22;133;49.626;9.680;2023-10-09T01:13:47;13.70;96.40
298;DHT22;133;49.626;9.680;2023-10-09T01:16:16;13.80;96.10
298;DHT22;133;49.626;9.680;2023-10-09T01:18:47;13.80;95.80
298;DHT22;133;49.626;9.680;2023-10-09T01:21:15;13.80;95.60
298;DHT22;133;49.626;9.680;2023-10-09T01:23:42;13.70;95.50
298;DHT22;133;49.626;9.680;2023-10-09T01:26:26;13.70;95.50
298;DHT22;133;49.626;9.680;2023-10-09T01:28:52;13.60;95.70
298;DHT22;133;49.626;9.680;2023-10-09T01:31:26;13.60;95.70
298;DHT22;133;49.626;9.680;2023-10-09T01:33:53;13.60;95.80
298;DHT22;133;49.626;9.680;2023-10-09T01:36:25;13.60;95.70
298;DHT22;133;49.626;9.680;2023-10-09T01:39:02;13.50;95.80
298;DHT22;133;49.626;9.680;2023-10-09T01:41:36;13.50;95.90
298;DHT22;133;49.626;9.680;2023-10-09T01:44:11;13.50;96.30
298;DHT22;133;49.626;9.680;2023-10-09T01:46:38;13.50;96.50
298;DHT22;133;49.626;9.680;2023-10-09T01:49:04;13.50;96.60
298;DHT22;133;49.626;9.680;2023-10-09T01:51:36;13.50;96.40
298;DHT22;133;49.626;9.680;2023-10-09T01:54:04;13.50;96.40
298;DHT22;133;49.626;9.680;2023-10-09T01:56:29;13.50;96.40
298;DHT22;133;49.626;9.680;2023-10-09T01:58:55;13.50;96.50
298;DHT22;133;49.626;9.680;2023-10-09T02:01:23;13.50;96.40
298;DHT22;133;49.626;9.680;2023-10-09T02:03:49;13.50;96.30
298;DHT22;133;49.626;9.680;2023-10-09T02:06:17;13.50;96.50
298;DHT22;133;49.626;9.680;2023-10-09T02:08:54;13.50;96.70
298;DHT22;133;49.626;9.680;2023-10-09T02:11:21;13.60;97.10
298;DHT22;133;49.626;9.680;2023-10-09T02:14:02;13.60;97.10
298;DHT22;133;49.626;9.680;2023-10-09T02:16:30;13.70;96.80
298;DHT22;133;49.626;9.680;2023-10-09T02:19:07;13.70;96.80
298;DHT22;133;49.626;9.680;2023-10-09T02:21:33;13.60;96.60
298;DHT22;133;49.626;9.680;2023-10-09T02:24:03;13.60;96.70
298;DHT22;133;49.626;9.680;2023-10-09T02:26:33;13.60;96.60
298;DHT22;133;49.626;9.680;2023-10-09T02:29:19;13.60;96.60
298;DHT22;133;49.626;9.680;2023-10-09T02:31:49;13.60;96.40
298;DHT22;133;49.626;9.680;2023-10-09T02:34:26;13.60;96.30
298;DHT22;133;49.626;9.680;2023-10-09T02:36:53;13.60;96.50
298;DHT22;133;49.626;9.680;2023-10-09T02:39:31;13.60;96.50
298;DHT22;133;49.626;9.680;2023-10-09T02:42:02;13.60;96.60
298;DHT22;133;49.626;9.680;2023-10-09T02:44:40;13.60;96.50
298;DHT22;133;49.626;9.680;2023-10-09T02:47:12;13.60;96.40
298;DHT22;133;49.626;9.680;2023-10-09T02:49:43;13.60;96.30
298;DHT22;133;49.626;9.680;2023-10-09T02:52:09;13.60;96.30
298;DHT22;133;49.626;9.680;2023-10-09T02:54:39;13.60;96.30
298;DHT22;133;49.626;9.680;2023-10-09T02:57:07;13.50;96.10
298;DHT22;133;49.626;9.680;2023-10-09T02:59:36;13.50;96.30
298;DHT22;133;49.626;9.680;2023-10-09T03:02:10;13.50;96.40
298;DHT22;133;49.626;9.680;2023-10-09T03:04:36;13.40;96.40
298;DHT22;133;49.626;9.680;2023-10-09T03:07:04;13.40;96.50
298;DHT22;133;49.626;9.680;2023-10-09T03:09:31;13.40;96.60
298;DHT22;133;49.626;9.680;2023-10-09T03:11:59;13.50;96.70
298;DHT22;133;49.626;9.680;2023-10-09T03:14:29;13.50;96.60
298;DHT22;133;49.626;9.680;2023-10-09T03:16:56;13.50;96.50
298;DHT22;133;49.626;9.680;2023-10-09T03:19:25;13.50;96.40
298;DHT22;133;49.626;9.680;2023-10-09T03:21:52;13.40;96.70
298;DHT22;133;49.626;9.680;2023-10-09T03:24:17;13.40;96.70
298;DHT22;133;49.626;9.680;2023-10-09T03:26:43;13.40;96.60
298;DHT22;133;49.626;9.680;2023-10-09T03:29:11;13.30;96.50
298;DHT22;133;49.626;9.680;2023-10-09T03:31:37;13.30;96.70
298;DHT22;133;49.626;9.680;2023-10-09T03:34:04;13.20;96.60
298;DHT22;133;49.626;9.680;2023-10-09T03:36:30;13.20;96.80
298;DHT22;133;49.626;9.680;2023-10-09T03:39:07;13.20;97.10
298;DHT22;133;49.626;9.680;2023-10-09T03:41:56;13.30;96.90
298;DHT22;133;49.626;9.680;2023-10-09T03:44:26;13.30;96.80
298;DHT22;133;49.626;9.680;2023-10-09T03:46:54;13.30;96.80
298;DHT22;133;49.626;9.680;2023-10-09T03:49:20;13.30;96.70
298;DHT22;133;49.626;9.680;2023-10-09T03:51:51;13.30;96.70
298;DHT22;133;49.626;9.680;2023-10-09T03:54:17;13.30;96.80
298;DHT22;133;49.626;9.680;2023-10-09T03:56:46;13.30;96.90
298;DHT22;133;49.626;9.680;2023-10-09T03:59:18;13.30;96.90
298;DHT22;133;49.626;9.680;2023-10-09T04:01:45;13.30;96.70
298;DHT22;133;49.626;9.680;2023-10-09T04:04:12;13.30;96.80
298;DHT22;133;49.626;9.680;2023-10-09T04:06:40;13.30;96.70
298;DHT22;133;49.626;9.680;2023-10-09T04:09:10;13.30;96.50
298;DHT22;133;49.626;9.680;2023-10-09T04:11:51;13.30;96.30
298;DHT22;133;49.626;9.680;2023-10-09T04:14:35;13.30;96.00
298;DHT22;133;49.626;9.680;2023-10-09T04:17:01;13.20;96.10
298;DHT22;133;49.626;9.680;2023-10-09T04:20:00;13.20;96.30
298;DHT22;133;49.626;9.680;2023-10-09T04:22:44;13.20;96.20
298;DHT22;133;49.626;9.680;2023-10-09T04:25:22;13.20;96.00
298;DHT22;133;49.626;9.680;2023-10-09T04:27:58;13.10;96.00
298;DHT22;133;49.626;9.680;2023-10-09T04:30:43;13.10;96.10
298;DHT22;133;49.626;9.680;2023-10-09T04:33:09;13.10;96.40
298;DHT22;133;49.626;9.680;2023-10-09T04:36:13;13.10;96.40
298;DHT22;133;49.626;9.680;2023-10-09T04:38:52;13.10;96.50
298;DHT22;133;49.626;9.680;2023-10-09T04:41:22;13.10;96.80
298;DHT22;133;49.626;9.680;2023-10-09T04:43:54;13.10;96.80
298;DHT22;133;49.626;9.680;2023-10-09T04:46:39;13.10;97.40
298;DHT22;133;49.626;9.680;2023-10-09T04:49:10;13.20;97.30
298;DHT22;133;49.626;9.680;2023-10-09T04:52:01;13.20;97.30
298;DHT22;133;49.626;9.680;2023-10-09T04:54:31;13.30;97.40
298;DHT22;133;49.626;9.680;2023-10-09T04:57:17;13.40;97.50
298;DHT22;133;49.626;9.680;2023-10-09T04:59:43;13.50;97.60
298;DHT22;133;49.626;9.680;2023-10-09T05:02:13;13.50;97.70
298;DHT22;133;49.626;9.680;2023-10-09T05:04:47;13.60;97.60
298;DHT22;133;49.626;9.680;2023-10-09T05:07:26;13.70;97.50
298;DHT22;133;49.626;9.680;2023-10-09T05:10:12;13.70;97.30
298;DHT22;133;49.626;9.680;2023-10-09T05:12:43;13.80;97.30
298;DHT22;133;49.626;9.680;2023-10-09T05:15:25;13.80;97.00
298;DHT22;133;49.626;9.680;2023-10-09T05:17:59;13.90;96.90
298;DHT22;133;49.626;9.680;2023-10-09T05:20:35;13.90;96.70
298;DHT22;133;49.626;9.680;2023-10-09T05:23:19;13.90;96.60
298;DHT22;133;49.626;9.680;2023-10-09T05:25:51;13.90;96.50
298;DHT22;133;49.626;9.680;2023-10-09T05:28:21;13.90;96.50
298;DHT22;133;49.626;9.680;2023-10-09T05:30:56;13.80;96.30
298;DHT22;133;49.626;9.680;2023-10-09T05:33:35;13.80;97.10
298;DHT22;133;49.626;9.680;2023-10-09T05:36:06;13.80;96.90
298;DHT22;133;49.626;9.680;2023-10-09T05:39:04;13.70;96.90
298;DHT22;133;49.626;9.680;2023-10-09T05:41:45;13.70;97.10
298;DHT22;133;49.626;9.680;2023-10-09T05:44:33;13.70;97.10
298;DHT22;133;49.626;9.680;2023-10-09T05:47:17;13.80;97.10
298;DHT22;133;49.626;9.680;2023-10-09T05:49:56;13.70;97.20
298;DHT22;133;49.626;9.680;2023-10-09T05:52:34;13.70;97.30
298;DHT22;133;49.626;9.680;2023-10-09T05:55:03;13.70;97.40
298;DHT22;133;49.626;9.680;2023-10-09T05:57:47;13.80;97.50
298;DHT22;133;49.626;9.680;2023-10-09T06:00:31;13.80;97.40
298;DHT22;133;49.626;9.680;2023-10-09T06:03:15;13.90;97.20
298;DHT22;133;49.626;9.680;2023-10-09T06:05:47;14.00;97.10
298;DHT22;133;49.626;9.680;2023-10-09T06:08:23;14.00;96.90
298;DHT22;133;49.626;9.680;2023-10-09T06:11:04;14.10;96.70
298;DHT22;133;49.626;9.680;2023-10-09T06:13:58;14.10;96.60
298;DHT22;133;49.626;9.680;2023-10-09T06:16:30;14.10;96.50
298;DHT22;133;49.626;9.680;2023-10-09T06:19:14;14.20;96.40
298;DHT22;133;49.626;9.680;2023-10-09T06:21:54;14.20;96.40
298;DHT22;133;49.626;9.680;2023-10-09T06:24:38;14.30;96.30
298;DHT22;133;49.626;9.680;2023-10-09T06:27:20;14.30;96.00
298;DHT22;133;49.626;9.680;2023-10-09T06:29:55;14.40;95.80
298;DHT22;133;49.626;9.680;2023-10-09T06:32:56;14.50;95.80
298;DHT22;133;49.626;9.680;2023-10-09T06:35:34;14.60;95.40
298;DHT22;133;49.626;9.680;2023-10-09T06:38:01;14.60;95.30
298;DHT22;133;49.626;9.680;2023-10-09T06:40:34;14.70;95.30
298;DHT22;133;49.626;9.680;2023-10-09T06:43:19;14.70;95.10
298;DHT22;133;49.626;9.680;2023-10-09T06:45:48;14.80;95.00
298;DHT22;133;49.626;9.680;2023-10-09T06:48:24;14.90;94.80
298;DHT22;133;49.626;9.680;2023-10-09T06:51:06;15.00;94.20
298;DHT22;133;49.626;9.680;2023-10-09T06:53:53;15.00;94.30
298;DHT22;133;49.626;9.680;2023-10-09T06:56:19;15.00;94.30
298;DHT22;133;49.626;9.680;2023-10-09T06:58:51;15.10;94.30
298;DHT22;133;49.626;9.680;2023-10-09T07:01:21;15.10;94.20
298;DHT22;133;49.626;9.680;2023-10-09T07:04:07;15.10;93.80
298;DHT22;133;49.626;9.680;2023-10-09T07:06:47;15.20;93.60
298;DHT22;133;49.626;9.680;2023-10-09T07:09:13;15.30;93.20
298;DHT22;133;49.626;9.680;2023-10-09T07:11:43;15.30;92.60
298;DHT22;133;49.626;9.680;2023-10-09T07:14:14;15.40;92.40
298;DHT22;133;49.626;9.680;2023-10-09T07:17:06;15.50;91.70
298;DHT22;133;49.626;9.680;2023-10-09T07:19:53;15.50;91.50
298;DHT22;133;49.626;9.680;2023-10-09T07:22:22;15.60;91.00
298;DHT22;133;49.626;9.680;2023-10-09T07:24:51;15.70;90.90
298;DHT22;133;49.626;9.680;2023-10-09T07:27:28;15.80;90.60
298;DHT22;133;49.626;9.680;2023-10-09T07:30:16;15.90;90.40
298;DHT22;133;49.626;9.680;2023-10-09T07:33:08;15.90;89.10
298;DHT22;133;49.626;9.680;2023-10-09T07:35:38;15.90;88.70
298;DHT22;133;49.626;9.680;2023-10-09T07:38:17;16.00;88.80
298;DHT22;133;49.626;9.680;2023-10-09T07:40:47;16.10;88.60
298;DHT22;133;49.626;9.680;2023-10-09T07:43:45;16.20;88.50
298;DHT22;133;49.626;9.680;2023-10-09T07:46:14;16.30;88.60
298;DHT22;133;49.626;9.680;2023-10-09T07:49:05;16.40;89.40
298;DHT22;133;49.626;9.680;2023-10-09T07:51:46;16.40;90.40
298;DHT22;133;49.626;9.680;2023-10-09T07:54:12;16.40;90.00
298;DHT22;133;49.626;9.680;2023-10-09T07:56:41;16.40;90.10
298;DHT22;133;49.626;9.680;2023-10-09T07:59:09;16.50;90.10
298;DHT22;133;49.626;9.680;2023-10-09T08:01:39;16.50;89.80
298;DHT22;133;49.626;9.680;2023-10-09T08:04:17;16.60;89.60
298;DHT22;133;49.626;9.680;2023-10-09T08:06:45;16.60;88.30
298;DHT22;133;49.626;9.680;2023-10-09T08:09:13;16.70;87.90
298;DHT22;133;49.626;9.680;2023-10-09T08:11:39;16.70;87.60
298;DHT22;133;49.626;9.680;2023-10-09T08:14:06;16.80;87.40
298;DHT22;133;49.626;9.680;2023-10-09T08:16:47;16.90;87.40
298;DHT22;133;49.626;9.680;2023-10-09T08:19:12;16.90;87.00
298;DHT22;133;49.626;9.680;2023-10-09T08:21:56;17.00;86.80
298;DHT22;133;49.626;9.680;2023-10-09T08:24:40;17.00;86.70
298;DHT22;133;49.626;9.680;2023-10-09T08:27:14;17.10;86.60
298;DHT22;133;49.626;9.680;2023-10-09T08:30:06;17.10;86.40
298;DHT22;133;49.626;9.680;2023-10-09T08:32:46;17.20;86.30
298;DHT22;133;49.626;9.680;2023-10-09T08:35:33;17.20;86.00
298;DHT22;133;49.626;9.680;2023-10-09T08:38:03;17.30;85.90
298;DHT22;133;49.626;9.680;2023-10-09T08:40:38;17.30;85.90
298;DHT22;133;49.626;9.680;2023-10-09T08:43:13;17.40;85.80
298;DHT22;133;49.626;9.680;2023-10-09T08:45:42;17.40;85.70
298;DHT22;133;49.626;9.680;2023-10-09T08:48:11;17.50;85.40
298;DHT22;133;49.626;9.680;2023-10-09T08:50:49;17.60;84.90
298;DHT22;133;49.626;9.680;2023-10-09T08:53:16;17.70;84.50
298;DHT22;133;49.626;9.680;2023-10-09T08:55:43;17.70;84.40
298;DHT22;133;49.626;9.680;2023-10-09T08:58:09;17.70;84.40
298;DHT22;133;49.626;9.680;2023-10-09T09:00:52;17.70;83.80
298;DHT22;133;49.626;9.680;2023-10-09T09:03:19;17.70;83.80
298;DHT22;133;49.626;9.680;2023-10-09T09:05:48;17.70;83.50
298;DHT22;133;49.626;9.680;2023-10-09T09:08:26;17.70;83.30
298;DHT22;133;49.626;9.680;2023-10-09T09:11:05;17.70;83.50
298;DHT22;133;49.626;9.680;2023-10-09T09:14:01;17.70;83.60
298;DHT22;133;49.626;9.680;2023-10-09T09:16:45;17.80;83.50
298;DHT22;133;49.626;9.680;2023-10-09T09:19:13;17.80;83.50
298;DHT22;133;49.626;9.680;2023-10-09T09:21:50;17.90;83.30
298;DHT22;133;49.626;9.680;2023-10-09T09:24:20;18.00;83.10
298;DHT22;133;49.626;9.680;2023-10-09T09:26:53;18.10;82.90
298;DHT22;133;49.626;9.680;2023-10-09T09:29:45;18.10;82.50
298;DHT22;133;49.626;9.680;2023-10-09T09:32:30;18.10;82.60
298;DHT22;133;49.626;9.680;2023-10-09T09:35:02;18.20;82.60
298;DHT22;133;49.626;9.680;2023-10-09T09:37:31;18.20;82.70
298;DHT22;133;49.626;9.680;2023-10-09T09:39:59;18.30;82.60
298;DHT22;133;49.626;9.680;2023-10-09T09:42:38;18.30;82.90
298;DHT22;133;49.626;9.680;2023-10-09T09:45:10;18.20;83.50
298;DHT22;133;49.626;9.680;2023-10-09T09:47:37;18.20;83.60
298;DHT22;133;49.626;9.680;2023-10-09T09:50:05;18.20;83.80
298;DHT22;133;49.626;9.680;2023-10-09T09:52:47;18.20;83.60
298;DHT22;133;49.626;9.680;2023-10-09T09:55:18;18.30;83.50
298;DHT22;133;49.626;9.680;2023-10-09T09:57:49;18.30;83.50
298;DHT22;133;49.626;9.680;2023-10-09T10:00:20;18.30;83.40
298;DHT22;133;49.626;9.680;2023-10-09T10:03:08;18.40;83.40
298;DHT22;133;49.626;9.680;2023-10-09T10:05:34;18.40;83.90
298;DHT22;133;49.626;9.680;2023-10-09T10:08:01;18.20;84.40
298;DHT22;133;49.626;9.680;2023-10-09T10:10:35;18.10;84.90
298;DHT22;133;49.626;9.680;2023-10-09T10:13:03;18.00;85.30
298;DHT22;133;49.626;9.680;2023-10-09T10:15:57;18.00;85.60
298;DHT22;133;49.626;9.680;2023-10-09T10:18:23;18.00;85.90
298;DHT22;133;49.626;9.680;2023-10-09T10:21:10;18.00;85.60
298;DHT22;133;49.626;9.680;2023-10-09T10:24:01;18.10;85.30
298;DHT22;133;49.626;9.680;2023-10-09T10:26:36;18.20;85.00
298;DHT22;133;49.626;9.680;2023-10-09T10:29:18;18.30;84.40
298;DHT22;133;49.626;9.680;2023-10-09T10:31:55;18.40;84.50
298;DHT22;133;49.626;9.680;2023-10-09T10:34:23;18.50;84.20
298;DHT22;133;49.626;9.680;2023-10-09T10:36:50;18.60;84.10
298;DHT22;133;49.626;9.680;2023-10-09T10:39:18;18.60;83.80
298;DHT22;133;49.626;9.680;2023-10-09T10:41:53;18.70;83.70
298;DHT22;133;49.626;9.680;2023-10-09T10:44:33;18.70;83.40
298;DHT22;133;49.626;9.680;2023-10-09T10:46:59;18.70;83.10
298;DHT22;133;49.626;9.680;2023-10-09T10:49:24;18.80;83.00
298;DHT22;133;49.626;9.680;2023-10-09T10:52:02;18.80;82.90
298;DHT22;133;49.626;9.680;2023-10-09T10:54:40;18.90;82.40
298;DHT22;133;49.626;9.680;2023-10-09T10:57:22;18.90;82.40
298;DHT22;133;49.626;9.680;2023-10-09T10:59:57;19.00;82.00
298;DHT22;133;49.626;9.680;2023-10-09T11:02:43;19.10;81.90
298;DHT22;133;49.626;9.680;2023-10-09T11:05:09;19.10;82.20
298;DHT22;133;49.626;9.680;2023-10-09T11:07:49;19.20;81.80
298;DHT22;133;49.626;9.680;2023-10-09T11:10:22;19.30;81.20
298;DHT22;133;49.626;9.680;2023-10-09T11:12:53;19.40;81.10
298;DHT22;133;49.626;9.680;2023-10-09T11:15:36;19.50;80.80
298;DHT22;133;49.626;9.680;2023-10-09T11:18:13;19.60;80.70
298;DHT22;133;49.626;9.680;2023-10-09T11:20:48;19.50;80.70
298;DHT22;133;49.626;9.680;2023-10-09T11:23:30;19.50;80.90
298;DHT22;133;49.626;9.680;2023-10-09T11:26:03;19.50;81.30
298;DHT22;133;49.626;9.680;2023-10-09T11:29:11;19.80;81.00
298;DHT22;133;49.626;9.680;2023-10-09T11:32:03;20.10;80.70
298;DHT22;133;49.626;9.680;2023-10-09T11:34:35;20.40;80.00
298;DHT22;133;49.626;9.680;2023-10-09T11:39:38;21.10;78.00
298;DHT22;133;49.626;9.680;2023-10-09T11:42:18;21.40;76.70
298;DHT22;133;49.626;9.680;2023-10-09T11:45:05;21.40;76.00
298;DHT22;133;49.626;9.680;2023-10-09T11:47:48;21.20;75.80
298;DHT22;133;49.626;9.680;2023-10-09T11:50:47;21.10;76.40
298;DHT22;133;49.626;9.680;2023-10-09T11:53:19;20.90;76.40
298;DHT22;133;49.626;9.680;2023-10-09T11:55:59;20.70;76.70
298;DHT22;133;49.626;9.680;2023-10-09T11:58:25;20.50;77.00
298;DHT22;133;49.626;9.680;2023-10-09T12:00:55;20.50;77.30
298;DHT22;133;49.626;9.680;2023-10-09T12:03:31;20.40;77.70
298;DHT22;133;49.626;9.680;2023-10-09T12:06:02;20.40;77.70
298;DHT22;133;49.626;9.680;2023-10-09T12:08:33;20.50;77.30
298;DHT22;133;49.626;9.680;2023-10-09T12:10:59;20.50;76.20
298;DHT22;133;49.626;9.680;2023-10-09T12:13:29;20.60;76.10
298;DHT22;133;49.626;9.680;2023-10-09T12:15:54;20.70;75.60
298;DHT22;133;49.626;9.680;2023-10-09T12:18:21;20.80;75.60
298;DHT22;133;49.626;9.680;2023-10-09T12:20:49;20.90;75.10
298;DHT22;133;49.626;9.680;2023-10-09T12:23:22;20.90;75.00
298;DHT22;133;49.626;9.680;2023-10-09T12:25:49;21.10;74.60
298;DHT22;133;49.626;9.680;2023-10-09T12:28:15;21.10;74.30
298;DHT22;133;49.626;9.680;2023-10-09T12:30:49;21.20;73.80
298;DHT22;133;49.626;9.680;2023-10-09T12:33:16;21.20;73.30
298;DHT22;133;49.626;9.680;2023-10-09T12:35:43;21.20;73.00
298;DHT22;133;49.626;9.680;2023-10-09T12:38:11;21.10;72.80
298;DHT22;133;49.626;9.680;2023-10-09T12:40:38;21.20;72.70
298;DHT22;133;49.626;9.680;2023-10-09T12:43:06;21.30;72.60
298;DHT22;133;49.626;9.680;2023-10-09T12:45:41;21.40;72.40
298;DHT22;133;49.626;9.680;2023-10-09T12:48:06;21.50;72.00
298;DHT22;133;49.626;9.680;2023-10-09T12:50:36;21.60;71.40
298;DHT22;133;49.626;9.680;2023-10-09T12:53:08;21.70;71.10
298;DHT22;133;49.626;9.680;2023-10-09T12:55:40;21.60;70.50
298;DHT22;133;49.626;9.680;2023-10-09T12:58:10;21.70;70.50
298;DHT22;133;49.626;9.680;2023-10-09T13:00:40;21.70;69.90
298;DHT22;133;49.626;9.680;2023-10-09T13:03:16;21.80;69.80
298;DHT22;133;49.626;9.680;2023-10-09T13:05:53;21.90;69.70
298;DHT22;133;49.626;9.680;2023-10-09T13:08:29;22.20;69.60
298;DHT22;133;49.626;9.680;2023-10-09T13:11:10;22.50;68.40
298;DHT22;133;49.626;9.680;2023-10-09T13:13:37;22.70;68.00
298;DHT22;133;49.626;9.680;2023-10-09T13:16:17;22.50;66.40
298;DHT22;133;49.626;9.680;2023-10-09T13:18:50;22.50;66.50
298;DHT22;133;49.626;9.680;2023-10-09T13:21:20;22.50;66.20
298;DHT22;133;49.626;9.680;2023-10-09T13:23:46;22.50;65.60
298;DHT22;133;49.626;9.680;2023-10-09T13:26:20;22.30;66.00
298;DHT22;133;49.626;9.680;2023-10-09T13:28:56;22.10;66.80
298;DHT22;133;49.626;9.680;2023-10-09T13:31:24;22.10;66.80
298;DHT22;133;49.626;9.680;2023-10-09T13:33:56;21.80;66.80
298;DHT22;133;49.626;9.680;2023-10-09T13:36:25;21.80;67.20
298;DHT22;133;49.626;9.680;2023-10-09T13:39:02;21.80;67.30
298;DHT22;133;49.626;9.680;2023-10-09T13:41:50;21.90;67.60
298;DHT22;133;49.626;9.680;2023-10-09T13:44:18;22.00;67.20
298;DHT22;133;49.626;9.680;2023-10-09T13:46:44;22.00;67.40
298;DHT22;133;49.626;9.680;2023-10-09T13:49:10;22.00;67.20
298;DHT22;133;49.626;9.680;2023-10-09T13:51:40;22.10;66.70
298;DHT22;133;49.626;9.680;2023-10-09T13:54:14;22.10;66.90
298;DHT22;133;49.626;9.680;2023-10-09T13:56:50;22.20;65.90
298;DHT22;133;49.626;9.680;2023-10-09T13:59:19;22.00;66.20
298;DHT22;133;49.626;9.680;2023-10-09T14:01:47;22.00;65.60
298;DHT22;133;49.626;9.680;2023-10-09T14:04:13;22.10;65.60
298;DHT22;133;49.626;9.680;2023-10-09T14:06:44;22.20;65.50
298;DHT22;133;49.626;9.680;2023-10-09T14:09:11;22.40;65.60
298;DHT22;133;49.626;9.680;2023-10-09T14:11:37;22.40;65.30
298;DHT22;133;49.626;9.680;2023-10-09T14:14:09;22.30;65.20
298;DHT22;133;49.626;9.680;2023-10-09T14:16:38;22.30;64.90
298;DHT22;133;49.626;9.680;2023-10-09T14:19:08;22.40;65.40
298;DHT22;133;49.626;9.680;2023-10-09T14:21:39;22.30;65.60
298;DHT22;133;49.626;9.680;2023-10-09T14:24:08;22.20;65.70
298;DHT22;133;49.626;9.680;2023-10-09T14:26:42;22.20;65.10
298;DHT22;133;49.626;9.680;2023-10-09T14:29:10;22.20;65.50
298;DHT22;133;49.626;9.680;2023-10-09T14:31:35;22.30;65.60
298;DHT22;133;49.626;9.680;2023-10-09T14:34:04;22.30;65.80
298;DHT22;133;49.626;9.680;2023-10-09T14:36:30;22.20;65.70
298;DHT22;133;49.626;9.680;2023-10-09T14:38:59;22.30;65.70
298;DHT22;133;49.626;9.680;2023-10-09T14:41:26;22.20;65.80
298;DHT22;133;49.626;9.680;2023-10-09T14:43:53;22.10;66.00
298;DHT22;133;49.626;9.680;2023-10-09T14:46:19;22.10;66.00
298;DHT22;133;49.626;9.680;2023-10-09T14:48:54;22.10;66.30
298;DHT22;133;49.626;9.680;2023-10-09T14:51:21;22.00;66.40
298;DHT22;133;49.626;9.680;2023-10-09T14:53:56;22.10;66.60
298;DHT22;133;49.626;9.680;2023-10-09T14:56:28;22.00;66.70
298;DHT22;133;49.626;9.680;2023-10-09T14:59:00;22.00;67.00
298;DHT22;133;49.626;9.680;2023-10-09T15:01:26;22.00;67.20
298;DHT22;133;49.626;9.680;2023-10-09T15:03:58;22.00;67.30
298;DHT22;133;49.626;9.680;2023-10-09T15:06:27;21.90;67.50
298;DHT22;133;49.626;9.680;2023-10-09T15:08:57;22.00;67.60
298;DHT22;133;49.626;9.680;2023-10-09T15:11:25;21.90;67.80
298;DHT22;133;49.626;9.680;2023-10-09T15:13:52;21.80;68.40
298;DHT22;133;49.626;9.680;2023-10-09T15:16:18;21.80;68.70
298;DHT22;133;49.626;9.680;2023-10-09T15:18:47;21.80;68.70
298;DHT22;133;49.626;9.680;2023-10-09T15:21:18;21.80;68.90
298;DHT22;133;49.626;9.680;2023-10-09T15:23:44;21.70;69.20
298;DHT22;133;49.626;9.680;2023-10-09T15:26:09;21.70;69.20
298;DHT22;133;49.626;9.680;2023-10-09T15:28:35;21.80;69.10
298;DHT22;133;49.626;9.680;2023-10-09T15:31:01;21.90;69.30
298;DHT22;133;49.626;9.680;2023-10-09T15:33:26;21.90;69.70
298;DHT22;133;49.626;9.680;2023-10-09T15:35:56;22.00;69.60
298;DHT22;133;49.626;9.680;2023-10-09T15:38:22;22.00;69.50
298;DHT22;133;49.626;9.680;2023-10-09T15:40:49;22.00;70.00
298;DHT22;133;49.626;9.680;2023-10-09T15:43:14;22.00;70.20
298;DHT22;133;49.626;9.680;2023-10-09T15:45:43;22.00;70.50
298;DHT22;133;49.626;9.680;2023-10-09T15:48:15;22.00;70.80
298;DHT22;133;49.626;9.680;2023-10-09T15:50:45;21.90;71.10
298;DHT22;133;49.626;9.680;2023-10-09T15:53:15;21.90;71.50
298;DHT22;133;49.626;9.680;2023-10-09T15:55:43;21.80;72.10
298;DHT22;133;49.626;9.680;2023-10-09T15:58:09;21.70;72.50
298;DHT22;133;49.626;9.680;2023-10-09T16:00:35;21.60;72.70
298;DHT22;133;49.626;9.680;2023-10-09T16:03:00;21.60;72.80
298;DHT22;133;49.626;9.680;2023-10-09T16:05:29;21.60;73.00
298;DHT22;133;49.626;9.680;2023-10-09T16:07:57;21.50;73.10
298;DHT22;133;49.626;9.680;2023-10-09T16:10:23;21.50;73.40
298;DHT22;133;49.626;9.680;2023-10-09T16:12:49;21.40;73.80
298;DHT22;133;49.626;9.680;2023-10-09T16:15:17;21.40;74.00
298;DHT22;133;49.626;9.680;2023-10-09T16:17:46;21.30;74.20
298;DHT22;133;49.626;9.680;2023-10-09T16:20:13;21.20;74.50
298;DHT22;133;49.626;9.680;2023-10-09T16:22:48;21.20;74.70
298;DHT22;133;49.626;9.680;2023-10-09T16:25:14;21.10;75.10
298;DHT22;133;49.626;9.680;2023-10-09T16:27:43;21.00;75.70
298;DHT22;133;49.626;9.680;2023-10-09T16:30:16;20.90;76.20
298;DHT22;133;49.626;9.680;2023-10-09T16:32:49;20.80;76.70
298;DHT22;133;49.626;9.680;2023-10-09T16:35:18;20.70;76.80
298;DHT22;133;49.626;9.680;2023-10-09T16:37:48;20.70;77.00
298;DHT22;133;49.626;9.680;2023-10-09T16:40:15;20.60;76.90
298;DHT22;133;49.626;9.680;2023-10-09T16:42:41;20.50;76.90
298;DHT22;133;49.626;9.680;2023-10-09T16:45:10;20.50;76.30
298;DHT22;133;49.626;9.680;2023-10-09T16:47:44;20.40;76.50
298;DHT22;133;49.626;9.680;2023-10-09T16:50:09;20.30;76.60
298;DHT22;133;49.626;9.680;2023-10-09T16:52:35;20.30;76.70
298;DHT22;133;49.626;9.680;2023-10-09T16:55:07;20.20;76.60
298;DHT22;133;49.626;9.680;2023-10-09T16:57:40;20.20;75.70
298;DHT22;133;49.626;9.680;2023-10-09T17:00:17;20.10;75.40
298;DHT22;133;49.626;9.680;2023-10-09T17:03:00;20.10;75.40
298;DHT22;133;49.626;9.680;2023-10-09T17:05:32;20.10;75.30
298;DHT22;133;49.626;9.680;2023-10-09T17:08:01;20.10;75.50
298;DHT22;133;49.626;9.680;2023-10-09T17:10:27;20.10;75.70
298;DHT22;133;49.626;9.680;2023-10-09T17:12:57;20.10;75.30
298;DHT22;133;49.626;9.680;2023-10-09T17:15:23;20.10;75.50
298;DHT22;133;49.626;9.680;2023-10-09T17:17:56;20.10;75.80